createdAt,value
2018-09-22T00:00:48.101Z,99.99
2018-09-22T00:01:48.157Z,99.99
2018-09-22T00:02:48.213Z,99.99
2018-09-22T00:03:48.273Z,99.99
2018-09-22T00:04:48.330Z,99.99
2018-09-22T00:05:48.389Z,99.99
2018-09-22T00:06:48.447Z,99.99
2018-09-22T00:07:48.504Z,99.99
2018-09-22T00:08:48.563Z,99.99
2018-09-22T00:09:48.622Z,99.99
2018-09-22T00:10:48.680Z,99.99
2018-09-22T00:11:48.744Z,99.99
2018-09-22T00:12:48.795Z,99.99
2018-09-22T00:13:48.853Z,99.99
2018-09-22T00:14:48.910Z,99.99
2018-09-22T00:15:48.970Z,99.99
2018-09-22T00:16:49.026Z,99.99
2018-09-22T00:17:49.085Z,99.99
2018-09-22T00:18:49.142Z,99.99
2018-09-22T00:19:49.200Z,99.99
2018-09-22T00:20:49.259Z,99.99
2018-09-22T00:21:49.365Z,99.99
2018-09-22T00:22:49.374Z,99.99
2018-09-22T00:23:49.433Z,99.99
2018-09-22T00:24:49.490Z,99.99
2018-09-22T00:25:49.549Z,99.99
2018-09-22T00:26:49.610Z,99.99
2018-09-22T00:27:49.664Z,99.99
2018-09-22T00:28:49.722Z,99.99
2018-09-22T00:29:49.782Z,99.99
2018-09-22T00:30:49.840Z,99.99
2018-09-22T00:31:49.897Z,99.99
2018-09-22T00:32:49.955Z,99.99
2018-09-22T00:33:50.011Z,99.99
2018-09-22T00:34:50.068Z,99.99
2018-09-22T00:35:50.128Z,99.99
2018-09-22T00:36:50.186Z,99.99
2018-09-22T00:37:50.243Z,99.99
2018-09-22T00:38:50.301Z,99.99
2018-09-22T00:39:50.359Z,99.99
2018-09-22T00:40:50.417Z,99.99
2018-09-22T00:41:50.476Z,99.99
2018-09-22T00:42:50.532Z,99.99
2018-09-22T00:43:50.591Z,99.99
2018-09-22T00:44:50.649Z,99.99
2018-09-22T00:45:50.708Z,99.99
2018-09-22T00:46:50.768Z,99.99
2018-09-22T00:47:50.827Z,99.99
2018-09-22T00:48:50.881Z,99.99
2018-09-22T00:49:50.945Z,99.99
2018-09-22T00:50:51.008Z,99.99
2018-09-22T00:51:51.070Z,99.99
2018-09-22T00:52:51.126Z,99.99
2018-09-22T00:53:51.187Z,99.99
2018-09-22T00:54:51.230Z,99.99
2018-09-22T00:55:51.287Z,99.99
2018-09-22T00:56:51.345Z,99.99
2018-09-22T00:57:51.404Z,99.99
2018-09-22T00:58:51.461Z,99.99
2018-09-22T00:59:51.520Z,99.99
2018-09-22T01:00:51.577Z,99.99
2018-09-22T01:01:51.635Z,99.99
2018-09-22T01:02:51.693Z,99.99
2018-09-22T01:03:51.752Z,99.99
2018-09-22T01:04:51.810Z,99.99
2018-09-22T01:05:51.867Z,99.99
2018-09-22T01:06:51.924Z,99.99
2018-09-22T01:07:51.983Z,99.99
2018-09-22T01:08:52.042Z,99.99
2018-09-22T01:09:52.099Z,99.99
2018-09-22T01:10:52.156Z,99.99
2018-09-22T01:11:52.217Z,99.99
2018-09-22T01:12:52.274Z,99.99
2018-09-22T01:13:52.333Z,99.99
2018-09-22T01:14:52.389Z,99.99
2018-09-22T01:15:52.457Z,99.99
2018-09-22T01:16:52.504Z,99.99
2018-09-22T01:17:52.564Z,99.99
2018-09-22T01:18:52.620Z,99.99
2018-09-22T01:19:52.680Z,99.99
2018-09-22T01:20:52.736Z,99.99
2018-09-22T01:21:52.795Z,99.99
2018-09-22T01:22:52.852Z,99.99
2018-09-22T01:23:52.912Z,99.99
2018-09-22T01:24:52.969Z,99.99
2018-09-22T01:25:53.026Z,99.99
2018-09-22T01:26:53.085Z,99.99
2018-09-22T01:27:53.141Z,99.99
2018-09-22T01:28:53.202Z,99.99
2018-09-22T01:29:53.258Z,99.99
2018-09-22T01:30:53.315Z,99.99
2018-09-22T01:31:53.373Z,99.99
2018-09-22T01:32:53.431Z,99.99
2018-09-22T01:33:53.489Z,99.99
2018-09-22T01:34:53.547Z,99.99
2018-09-22T01:35:53.606Z,99.99
2018-09-22T01:36:53.664Z,99.99
2018-09-22T01:37:53.722Z,99.99
2018-09-22T01:38:53.780Z,99.99
2018-09-22T01:39:53.836Z,99.99
2018-09-22T01:40:53.896Z,99.99
2018-09-22T01:41:53.951Z,99.99
2018-09-22T01:42:54.009Z,99.99
2018-09-22T01:43:54.318Z,99.99
2018-09-22T01:44:54.128Z,99.99
2018-09-22T01:45:54.183Z,99.99
2018-09-22T01:46:54.244Z,99.99
2018-09-22T01:47:54.301Z,99.99
2018-09-22T01:48:54.357Z,99.99
2018-09-22T01:49:54.415Z,99.99
2018-09-22T01:50:54.472Z,99.99
2018-09-22T01:51:54.530Z,99.99
2018-09-22T01:52:54.590Z,99.99
2018-09-22T01:53:54.647Z,99.99
2018-09-22T01:54:54.703Z,99.99
2018-09-22T01:55:54.761Z,99.99
2018-09-22T01:56:54.820Z,99.99
2018-09-22T01:57:54.878Z,99.99
2018-09-22T01:58:54.938Z,99.99
2018-09-22T01:59:54.992Z,99.99
2018-09-22T02:00:55.051Z,99.99
2018-09-22T02:01:55.109Z,99.99
2018-09-22T02:02:55.167Z,99.99
2018-09-22T02:03:55.224Z,99.99
2018-09-22T02:04:55.282Z,99.99
2018-09-22T02:05:55.340Z,99.99
2018-09-22T02:06:55.399Z,99.99
2018-09-22T02:07:55.459Z,99.99
2018-09-22T02:08:55.513Z,99.99
2018-09-22T02:09:55.571Z,99.99
2018-09-22T02:10:55.629Z,99.99
2018-09-22T02:11:55.686Z,99.99
2018-09-22T02:12:55.745Z,99.99
2018-09-22T02:13:55.803Z,99.99
2018-09-22T02:14:55.876Z,99.99
2018-09-22T02:15:55.918Z,99.99
2018-09-22T02:16:55.986Z,99.99
2018-09-22T02:17:56.038Z,99.99
2018-09-22T02:18:56.092Z,99.99
2018-09-22T02:19:56.152Z,99.99
2018-09-22T02:20:56.207Z,99.99
2018-09-22T02:21:56.266Z,99.99
2018-09-22T02:22:56.323Z,99.99
2018-09-22T02:23:56.397Z,99.99
2018-09-22T02:24:56.441Z,99.99
2018-09-22T02:25:56.502Z,99.99
2018-09-22T02:26:56.554Z,99.99
2018-09-22T02:27:56.612Z,99.99
2018-09-22T02:28:56.669Z,99.99
2018-09-22T02:29:56.727Z,99.99
2018-09-22T02:30:56.785Z,99.99
2018-09-22T02:31:56.844Z,99.99
2018-09-22T02:32:56.901Z,99.99
2018-09-22T02:33:56.959Z,99.99
2018-09-22T02:34:57.017Z,99.99
2018-09-22T02:35:57.073Z,99.99
2018-09-22T02:36:57.132Z,99.99
2018-09-22T02:37:57.189Z,99.99
2018-09-22T02:38:57.247Z,99.99
2018-09-22T02:39:57.309Z,99.99
2018-09-22T02:40:57.363Z,99.99
2018-09-22T02:41:57.422Z,99.99
2018-09-22T02:42:57.478Z,99.99
2018-09-22T02:43:57.537Z,99.99
2018-09-22T02:44:57.595Z,99.99
2018-09-22T02:45:57.653Z,99.99
2018-09-22T02:46:57.709Z,99.99
2018-09-22T02:47:57.766Z,99.99
2018-09-22T02:48:57.825Z,99.99
2018-09-22T02:49:57.883Z,99.99
2018-09-22T02:50:57.941Z,99.99
2018-09-22T02:51:57.998Z,99.99
2018-09-22T02:52:58.057Z,99.99
2018-09-22T02:53:58.115Z,99.99
2018-09-22T02:54:58.173Z,99.99
2018-09-22T02:55:58.230Z,99.99
2018-09-22T02:56:58.288Z,99.99
2018-09-22T02:57:58.348Z,99.99
2018-09-22T02:58:58.404Z,99.99
2018-09-22T02:59:58.461Z,99.99
2018-09-22T03:00:58.520Z,99.99
2018-09-22T03:01:58.578Z,99.99
2018-09-22T03:02:58.636Z,99.99
2018-09-22T03:03:58.694Z,99.99
2018-09-22T03:04:58.753Z,99.99
2018-09-22T03:05:58.810Z,99.99
2018-09-22T03:06:58.868Z,99.99
2018-09-22T03:07:58.925Z,99.99
2018-09-22T03:08:58.984Z,99.99
2018-09-22T03:09:59.047Z,99.99
2018-09-22T03:10:59.099Z,99.99
2018-09-22T03:11:59.157Z,99.99
2018-09-22T03:12:59.219Z,99.99
2018-09-22T03:13:59.273Z,99.99
2018-09-22T03:14:59.329Z,99.99
2018-09-22T03:15:59.387Z,99.99
2018-09-22T03:16:59.445Z,99.99
2018-09-22T03:17:59.502Z,99.99
2018-09-22T03:18:59.560Z,99.99
2018-09-22T03:19:59.618Z,99.99
2018-09-22T03:20:59.676Z,99.99
2018-09-22T03:21:59.734Z,99.99
2018-09-22T03:22:59.792Z,99.99
2018-09-22T03:23:59.849Z,99.99
2018-09-22T03:24:59.907Z,99.99
2018-09-22T03:25:59.965Z,99.99
2018-09-22T03:27:00.022Z,99.99
2018-09-22T03:28:00.080Z,99.99
2018-09-22T03:29:00.139Z,99.99
2018-09-22T03:30:00.196Z,99.99
2018-09-22T03:31:00.254Z,99.99
2018-09-22T03:32:00.311Z,99.99
2018-09-22T03:33:00.370Z,99.99
2018-09-22T03:34:00.427Z,99.99
2018-09-22T03:35:00.484Z,99.99
2018-09-22T03:36:00.542Z,99.99
2018-09-22T03:37:00.599Z,99.99
2018-09-22T03:38:00.678Z,99.99
2018-09-22T03:39:00.714Z,99.99
2018-09-22T03:40:00.774Z,99.99
2018-09-22T03:41:00.831Z,99.99
2018-09-22T03:42:00.890Z,99.99
2018-09-22T03:43:00.946Z,99.99
2018-09-22T03:44:01.007Z,99.99
2018-09-22T03:45:01.062Z,99.99
2018-09-22T03:46:01.120Z,99.99
2018-09-22T03:47:01.179Z,99.99
2018-09-22T03:48:01.235Z,99.99
2018-09-22T03:49:01.293Z,99.99
2018-09-22T03:50:01.352Z,99.99
2018-09-22T03:51:01.411Z,99.99
2018-09-22T03:52:01.466Z,99.99
2018-09-22T03:53:01.525Z,99.99
2018-09-22T03:54:01.587Z,99.99
2018-09-22T03:55:01.640Z,99.99
2018-09-22T03:56:01.697Z,99.99
2018-09-22T03:57:01.756Z,99.99
2018-09-22T03:58:01.814Z,99.99
2018-09-22T03:59:01.873Z,99.99
2018-09-22T04:00:01.929Z,99.99
2018-09-22T04:01:01.987Z,99.99
2018-09-22T04:02:02.046Z,99.99
2018-09-22T04:03:02.103Z,99.99
2018-09-22T04:04:02.161Z,99.99
2018-09-22T04:05:02.219Z,99.99
2018-09-22T04:06:02.277Z,99.99
2018-09-22T04:07:02.333Z,99.99
2018-09-22T04:08:02.393Z,99.99
2018-09-22T04:09:02.451Z,99.99
2018-09-22T04:10:02.772Z,99.99
2018-09-22T04:11:02.570Z,99.99
2018-09-22T04:12:02.624Z,99.99
2018-09-22T04:13:02.681Z,99.99
2018-09-22T04:14:02.741Z,99.99
2018-09-22T04:15:02.797Z,99.99
2018-09-22T04:16:02.873Z,99.99
2018-09-22T04:17:02.913Z,99.99
2018-09-22T04:18:02.971Z,99.99
2018-09-22T04:19:03.031Z,99.99
2018-09-22T04:20:03.088Z,99.99
2018-09-22T04:21:03.144Z,99.99
2018-09-22T04:22:03.214Z,99.99
2018-09-22T04:23:03.260Z,99.99
2018-09-22T04:24:03.318Z,99.99
2018-09-22T04:25:03.378Z,99.99
2018-09-22T04:26:03.433Z,99.99
2018-09-22T04:27:03.492Z,99.99
2018-09-22T04:28:03.552Z,99.99
2018-09-22T04:29:03.608Z,99.99
2018-09-22T04:30:03.666Z,99.99
2018-09-22T04:31:03.721Z,99.99
2018-09-22T04:32:03.782Z,99.99
2018-09-22T04:33:03.838Z,99.99
2018-09-22T04:34:03.904Z,99.99
2018-09-22T04:35:03.955Z,99.99
2018-09-22T04:36:04.012Z,99.99
2018-09-22T04:37:04.075Z,99.99
2018-09-22T04:38:04.128Z,99.99
2018-09-22T04:39:04.186Z,99.99
2018-09-22T04:40:04.244Z,99.99
2018-09-22T04:41:04.302Z,99.99
2018-09-22T04:42:04.360Z,99.99
2018-09-22T04:43:04.418Z,99.99
2018-09-22T04:44:04.477Z,99.99
2018-09-22T04:45:04.533Z,99.99
2018-09-22T04:46:04.592Z,99.99
2018-09-22T04:47:04.649Z,99.99
2018-09-22T04:48:04.708Z,99.99
2018-09-22T04:49:04.764Z,99.99
2018-09-22T04:50:04.823Z,99.99
2018-09-22T04:51:04.881Z,99.99
2018-09-22T04:52:04.939Z,99.99
2018-09-22T04:53:04.997Z,99.99
2018-09-22T04:54:05.055Z,99.99
2018-09-22T04:55:05.112Z,99.99
2018-09-22T04:56:05.172Z,99.99
2018-09-22T04:57:05.231Z,99.99
2018-09-22T04:58:05.286Z,99.99
2018-09-22T04:59:05.345Z,99.99
2018-09-22T05:00:05.401Z,99.99
2018-09-22T05:01:05.459Z,99.99
2018-09-22T05:02:05.517Z,99.99
2018-09-22T05:03:05.574Z,99.99
2018-09-22T05:04:05.633Z,99.99
2018-09-22T05:05:05.690Z,99.99
2018-09-22T05:06:05.752Z,99.99
2018-09-22T05:07:05.807Z,99.99
2018-09-22T05:08:05.864Z,99.99
2018-09-22T05:09:05.923Z,99.99
2018-09-22T05:10:05.981Z,99.99
2018-09-22T05:11:06.039Z,99.99
2018-09-22T05:12:06.097Z,99.99
2018-09-22T05:13:06.155Z,99.99
2018-09-22T05:14:06.212Z,99.99
2018-09-22T05:15:06.269Z,99.99
2018-09-22T05:16:06.327Z,99.99
2018-09-22T05:17:06.413Z,99.99
2018-09-22T05:18:06.445Z,99.99
2018-09-22T05:19:06.500Z,99.99
2018-09-22T05:20:06.560Z,99.99
2018-09-22T05:21:06.617Z,99.99
2018-09-22T05:22:06.675Z,99.99
2018-09-22T05:23:06.735Z,99.99
2018-09-22T05:24:06.794Z,99.99
2018-09-22T05:25:06.850Z,99.99
2018-09-22T05:26:06.907Z,99.99
2018-09-22T05:27:06.964Z,99.99
2018-09-22T05:28:07.021Z,99.99
2018-09-22T05:29:07.080Z,99.99
2018-09-22T05:30:07.139Z,99.99
2018-09-22T05:31:07.196Z,99.99
2018-09-22T05:32:07.254Z,99.99
2018-09-22T05:33:07.903Z,99.99
2018-09-22T05:34:07.679Z,99.99
2018-09-22T05:35:07.431Z,99.99
2018-09-22T05:36:07.487Z,99.99
2018-09-22T05:37:07.544Z,99.99
2018-09-22T05:38:07.601Z,99.99
2018-09-22T05:39:07.668Z,99.99
2018-09-22T05:40:07.718Z,99.99
2018-09-22T05:41:07.775Z,99.99
2018-09-22T05:42:07.833Z,99.99
2018-09-22T05:43:07.890Z,99.99
2018-09-22T05:44:07.949Z,99.99
2018-09-22T05:45:08.008Z,99.99
2018-09-22T05:46:08.065Z,99.99
2018-09-22T05:47:08.122Z,99.99
2018-09-22T05:48:08.181Z,99.99
2018-09-22T05:49:08.239Z,99.99
2018-09-22T05:50:08.299Z,99.99
2018-09-22T05:51:08.357Z,99.99
2018-09-22T05:52:08.412Z,99.99
2018-09-22T05:53:08.469Z,99.99
2018-09-22T05:54:08.873Z,99.99
2018-09-22T05:55:08.586Z,99.99
2018-09-22T05:56:08.644Z,99.99
2018-09-22T05:57:08.704Z,99.99
2018-09-22T05:58:08.766Z,99.99
2018-09-22T05:59:08.825Z,99.99
2018-09-22T06:00:08.877Z,99.99
2018-09-22T06:01:08.934Z,99.99
2018-09-22T06:02:08.991Z,99.99
2018-09-22T06:03:09.049Z,99.99
2018-09-22T06:04:09.109Z,99.99
2018-09-22T06:05:09.166Z,99.99
2018-09-22T06:06:09.224Z,99.99
2018-09-22T06:07:09.280Z,99.99
2018-09-22T06:08:09.340Z,99.99
2018-09-22T06:09:09.398Z,99.99
2018-09-22T06:10:09.459Z,99.99
2018-09-22T06:11:09.513Z,99.99
2018-09-22T06:12:09.573Z,99.99
2018-09-22T06:13:09.630Z,99.99
2018-09-22T06:14:09.688Z,99.99
2018-09-22T06:15:09.745Z,99.99
2018-09-22T06:16:09.804Z,99.99
2018-09-22T06:17:09.862Z,99.99
2018-09-22T06:18:09.922Z,99.99
2018-09-22T06:19:09.981Z,99.99
2018-09-22T06:20:10.040Z,99.99
2018-09-22T06:21:10.096Z,99.99
2018-09-22T06:22:10.153Z,99.99
2018-09-22T06:23:10.217Z,99.99
2018-09-22T06:24:10.271Z,99.99
2018-09-22T06:25:10.328Z,99.99
2018-09-22T06:26:10.386Z,99.99
2018-09-22T06:27:10.444Z,99.99
2018-09-22T06:28:10.503Z,99.99
2018-09-22T06:29:10.561Z,99.99
2018-09-22T06:30:10.619Z,99.99
2018-09-22T06:31:10.680Z,99.99
2018-09-22T06:32:10.736Z,99.99
2018-09-22T06:33:10.796Z,99.99
2018-09-22T06:34:10.855Z,99.99
2018-09-22T06:35:10.913Z,99.99
2018-09-22T06:36:10.969Z,99.99
2018-09-22T06:37:11.029Z,99.99
2018-09-22T06:38:11.088Z,99.99
2018-09-22T06:39:11.145Z,99.99
2018-09-22T06:40:11.205Z,99.99
2018-09-22T06:41:11.262Z,99.99
2018-09-22T06:42:11.321Z,99.99
2018-09-22T06:43:11.379Z,99.99
2018-09-22T06:44:11.756Z,99.99
2018-09-22T06:45:11.496Z,99.99
2018-09-22T06:46:11.619Z,99.99
2018-09-22T06:47:11.613Z,99.99
2018-09-22T06:48:11.671Z,99.99
2018-09-22T06:49:11.730Z,99.99
2018-09-22T06:50:11.789Z,99.99
2018-09-22T06:51:11.847Z,99.99
2018-09-22T06:52:11.906Z,99.99
2018-09-22T06:53:11.964Z,99.99
2018-09-22T06:54:12.024Z,99.99
2018-09-22T06:55:12.082Z,99.99
2018-09-22T06:56:12.140Z,99.99
2018-09-22T06:57:12.199Z,99.99
2018-09-22T06:58:12.258Z,99.99
2018-09-22T06:59:12.317Z,99.99
2018-09-22T07:00:12.375Z,99.99
2018-09-22T07:01:12.434Z,99.99
2018-09-22T07:02:12.497Z,99.99
2018-09-22T07:03:12.551Z,99.99
2018-09-22T07:04:12.612Z,99.99
2018-09-22T07:05:12.681Z,99.99
2018-09-22T07:06:12.779Z,99.99
2018-09-22T07:07:12.787Z,99.99
2018-09-22T07:08:12.846Z,99.99
2018-09-22T07:09:12.906Z,99.99
2018-09-22T07:10:12.965Z,99.99
2018-09-22T07:11:13.023Z,99.99
2018-09-22T07:12:13.084Z,99.99
2018-09-22T07:13:13.141Z,99.99
2018-09-22T07:14:13.201Z,99.99
2018-09-22T07:15:13.260Z,99.99
2018-09-22T07:16:13.320Z,99.99
2018-09-22T07:17:13.383Z,99.99
2018-09-22T07:18:13.441Z,99.99
2018-09-22T07:19:13.498Z,99.99
2018-09-22T07:20:13.557Z,99.99
2018-09-22T07:21:13.616Z,99.99
2018-09-22T07:22:13.708Z,99.99
2018-09-22T07:23:14.503Z,99.99
2018-09-22T07:24:14.517Z,99.99
2018-09-22T07:25:14.159Z,99.99
2018-09-22T07:26:14.309Z,99.99
2018-09-22T07:27:14.035Z,99.99
2018-09-22T07:28:14.447Z,99.99
2018-09-22T07:29:14.223Z,99.99
2018-09-22T07:30:14.273Z,99.99
2018-09-22T07:31:14.215Z,99.99
2018-09-22T07:32:14.271Z,99.99
2018-09-22T07:33:14.465Z,99.99
2018-09-22T07:34:14.436Z,99.99
2018-09-22T07:35:15.055Z,99.85
2018-09-22T07:36:14.641Z,99.95
2018-09-22T07:37:14.569Z,99.28
2018-09-22T07:38:14.630Z,99.66
2018-09-22T07:39:14.856Z,99.47
2018-09-22T07:40:14.881Z,99.28
2018-09-22T07:41:15.245Z,99.47
2018-09-22T07:42:14.869Z,99.76
2018-09-22T07:43:14.928Z,98.90
2018-09-22T07:44:14.988Z,99.90
2018-09-22T07:45:15.047Z,99.33
2018-09-22T07:46:15.108Z,98.94
2018-09-22T07:47:15.167Z,98.85
2018-09-22T07:48:15.227Z,99.14
2018-09-22T07:49:15.287Z,97.99
2018-09-22T07:50:15.353Z,98.75
2018-09-22T07:51:15.413Z,98.18
2018-09-22T07:52:15.466Z,98.42
2018-09-22T07:53:15.528Z,98.18
2018-09-22T07:54:15.588Z,98.23
2018-09-22T07:55:15.648Z,97.85
2018-09-22T07:56:16.045Z,98.18
2018-09-22T07:57:15.849Z,97.71
2018-09-22T07:58:15.828Z,97.85
2018-09-22T07:59:15.889Z,98.13
2018-09-22T08:00:16.004Z,97.85
2018-09-22T08:01:16.486Z,97.37
2018-09-22T08:02:16.069Z,97.28
2018-09-22T08:03:16.129Z,97.18
2018-09-22T08:04:16.190Z,97.08
2018-09-22T08:05:16.249Z,97.28
2018-09-22T08:06:16.310Z,97.47
2018-09-22T08:07:16.371Z,97.37
2018-09-22T08:08:16.430Z,96.89
2018-09-22T08:09:16.491Z,97.18
2018-09-22T08:10:16.552Z,97.37
2018-09-22T08:11:16.616Z,97.56
2018-09-22T08:12:16.671Z,97.28
2018-09-22T08:13:16.733Z,96.70
2018-09-22T08:14:16.793Z,96.70
2018-09-22T08:15:16.856Z,97.47
2018-09-22T08:16:16.913Z,97.28
2018-09-22T08:17:17.225Z,97.66
2018-09-22T08:18:17.034Z,96.70
2018-09-22T08:19:17.095Z,96.70
2018-09-22T08:20:17.155Z,96.80
2018-09-22T08:21:17.218Z,96.75
2018-09-22T08:22:17.276Z,96.70
2018-09-22T08:23:17.337Z,96.37
2018-09-22T08:24:17.396Z,96.08
2018-09-22T08:25:17.516Z,96.37
2018-09-22T08:26:17.517Z,96.18
2018-09-22T08:27:17.580Z,96.37
2018-09-22T08:28:17.643Z,96.66
2018-09-22T08:29:17.699Z,96.27
2018-09-22T08:30:17.762Z,95.89
2018-09-22T08:31:17.820Z,95.32
2018-09-22T08:32:17.883Z,95.41
2018-09-22T08:33:17.941Z,94.84
2018-09-22T08:34:18.064Z,95.22
2018-09-22T08:35:18.061Z,95.12
2018-09-22T08:36:18.168Z,95.22
2018-09-22T08:37:18.227Z,95.03
2018-09-22T08:38:18.244Z,94.74
2018-09-22T08:39:18.303Z,95.41
2018-09-22T08:40:18.364Z,95.41
2018-09-22T08:41:18.425Z,95.32
2018-09-22T08:42:18.487Z,95.41
2018-09-22T08:43:18.547Z,95.51
2018-09-22T08:44:18.607Z,94.93
2018-09-22T08:45:18.687Z,94.93
2018-09-22T08:46:18.729Z,95.22
2018-09-22T08:47:18.790Z,95.12
2018-09-22T08:48:18.850Z,95.07
2018-09-22T08:49:18.910Z,94.21
2018-09-22T08:50:18.973Z,94.31
2018-09-22T08:51:19.037Z,94.31
2018-09-22T08:52:19.093Z,94.21
2018-09-22T08:53:19.170Z,94.31
2018-09-22T08:54:19.303Z,93.64
2018-09-22T08:55:19.275Z,93.74
2018-09-22T08:56:19.346Z,92.73
2018-09-22T08:57:19.397Z,92.88
2018-09-22T08:58:19.458Z,93.16
2018-09-22T08:59:19.518Z,93.93
2018-09-22T09:00:19.606Z,92.97
2018-09-22T09:01:19.641Z,93.74
2018-09-22T09:02:19.702Z,93.93
2018-09-22T09:03:19.761Z,93.35
2018-09-22T09:04:19.823Z,93.35
2018-09-22T09:05:19.887Z,93.02
2018-09-22T09:06:19.945Z,93.07
2018-09-22T09:07:20.006Z,93.30
2018-09-22T09:08:20.067Z,92.92
2018-09-22T09:09:20.129Z,92.78
2018-09-22T09:10:20.190Z,93.30
2018-09-22T09:11:20.254Z,92.59
2018-09-22T09:12:20.310Z,93.02
2018-09-22T09:13:20.387Z,92.92
2018-09-22T09:15:07.887Z,92.16
2018-09-22T09:16:07.947Z,90.77
2018-09-22T09:17:08.076Z,90.77
2018-09-22T09:18:08.069Z,90.96
2018-09-22T09:19:08.132Z,90.86
2018-09-22T09:20:08.192Z,91.25
2018-09-22T09:21:08.278Z,91.05
2018-09-22T09:22:08.313Z,91.34
2018-09-22T09:23:08.376Z,90.77
2018-09-22T09:24:08.438Z,90.86
2018-09-22T09:25:08.499Z,90.62
2018-09-22T09:26:08.561Z,89.76
2018-09-22T09:27:08.620Z,88.47
2018-09-22T09:28:08.682Z,89.09
2018-09-22T09:29:08.743Z,88.99
2018-09-22T09:30:08.805Z,88.95
2018-09-22T09:31:08.867Z,89.57
2018-09-22T09:32:08.928Z,89.14
2018-09-22T09:33:09.240Z,90.29
2018-09-22T09:34:09.053Z,90.23
2018-09-22T09:35:09.115Z,90.05
2018-09-22T09:36:09.175Z,88.80
2018-09-22T09:37:09.236Z,88.90
2018-09-22T09:38:09.299Z,88.32
2018-09-22T09:39:09.375Z,87.65
2018-09-22T09:40:09.421Z,88.03
2018-09-22T09:41:09.482Z,87.37
2018-09-22T09:42:09.546Z,87.12
2018-09-22T09:43:09.648Z,86.74
2018-09-22T09:44:09.669Z,85.68
2018-09-22T09:45:09.732Z,86.07
2018-09-22T09:46:09.795Z,86.69
2018-09-22T09:47:09.855Z,87.55
2018-09-22T09:48:09.917Z,87.60
2018-09-22T09:49:09.979Z,87.21
2018-09-22T09:50:10.041Z,86.25
2018-09-22T09:51:10.103Z,86.16
2018-09-22T09:52:10.164Z,86.16
2018-09-22T09:53:10.227Z,85.68
2018-09-22T09:54:10.289Z,85.15
2018-09-22T09:55:10.352Z,84.77
2018-09-22T09:56:10.414Z,83.61
2018-09-22T09:57:10.476Z,83.61
2018-09-22T09:58:10.541Z,84.58
2018-09-22T09:59:10.603Z,85.78
2018-09-22T10:00:10.665Z,85.68
2018-09-22T10:01:10.729Z,85.97
2018-09-22T10:02:10.790Z,85.53
2018-09-22T10:03:10.857Z,84.38
2018-09-22T10:04:10.916Z,83.08
2018-09-22T10:05:10.979Z,82.70
2018-09-22T10:06:11.041Z,81.16
2018-09-22T10:07:11.105Z,80.11
2018-09-22T10:08:11.169Z,80.58
2018-09-22T10:09:11.233Z,80.11
2018-09-22T10:10:11.293Z,80.01
2018-09-22T10:11:11.357Z,79.72
2018-09-22T10:12:11.420Z,80.40
2018-09-22T10:13:11.482Z,80.87
2018-09-22T10:14:11.545Z,81.35
2018-09-22T10:15:11.612Z,80.97
2018-09-22T10:16:11.673Z,80.49
2018-09-22T10:17:11.740Z,81.35
2018-09-22T10:18:11.799Z,81.84
2018-09-22T10:19:11.862Z,80.15
2018-09-22T10:20:11.988Z,78.99
2018-09-22T10:21:11.988Z,79.86
2018-09-22T10:22:12.053Z,79.14
2018-09-22T10:23:12.115Z,80.40
2018-09-22T10:24:12.180Z,79.82
2018-09-22T10:25:12.243Z,79.57
2018-09-22T10:26:12.306Z,78.61
2018-09-22T10:27:12.369Z,78.42
2018-09-22T10:28:12.435Z,78.61
2018-09-22T10:29:12.495Z,79.82
2018-09-22T10:30:12.560Z,79.57
2018-09-22T10:31:12.624Z,79.53
2018-09-22T10:32:12.687Z,78.90
2018-09-22T10:33:12.751Z,78.32
2018-09-22T10:34:12.817Z,77.21
2018-09-22T10:35:12.879Z,76.98
2018-09-22T10:36:12.942Z,77.80
2018-09-22T10:37:13.005Z,77.46
2018-09-22T10:38:13.069Z,76.31
2018-09-22T10:39:13.137Z,76.54
2018-09-22T10:40:13.202Z,76.64
2018-09-22T10:41:13.260Z,75.77
2018-09-22T10:42:13.345Z,75.38
2018-09-22T10:43:13.388Z,75.38
2018-09-22T10:44:13.450Z,75.54
2018-09-22T10:45:13.515Z,76.40
2018-09-22T10:46:13.579Z,75.87
2018-09-22T10:47:13.642Z,74.81
2018-09-22T10:48:13.710Z,75.54
2018-09-22T10:49:13.808Z,76.69
2018-09-22T10:50:13.834Z,77.56
2018-09-22T10:51:13.899Z,76.40
2018-09-22T10:52:13.965Z,75.48
2018-09-22T10:53:14.027Z,75.77
2018-09-22T10:54:14.093Z,75.29
2018-09-22T10:55:14.155Z,75.29
2018-09-22T10:56:14.222Z,75.73
2018-09-22T10:57:14.308Z,75.10
2018-09-22T10:58:14.344Z,74.62
2018-09-22T10:59:14.411Z,74.23
2018-09-22T11:00:14.475Z,74.43
2018-09-22T11:01:14.538Z,74.04
2018-09-22T11:02:14.601Z,73.85
2018-09-22T11:03:14.703Z,74.13
2018-09-22T11:04:14.730Z,74.08
2018-09-22T11:05:14.794Z,73.50
2018-09-22T11:06:14.857Z,72.99
2018-09-22T11:07:14.922Z,72.89
2018-09-22T11:08:14.986Z,72.99
2018-09-22T11:09:15.049Z,72.89
2018-09-22T11:10:15.115Z,72.99
2018-09-22T11:11:15.178Z,73.37
2018-09-22T11:12:15.243Z,73.46
2018-09-22T11:13:15.306Z,73.43
2018-09-22T11:14:15.371Z,73.72
2018-09-22T11:15:15.435Z,74.68
2018-09-22T11:16:15.499Z,74.58
2018-09-22T11:17:15.561Z,73.91
2018-09-22T11:18:15.625Z,73.62
2018-09-22T11:19:15.689Z,73.72
2018-09-22T11:20:15.754Z,74.39
2018-09-22T11:21:15.820Z,74.39
2018-09-22T11:22:15.880Z,73.81
2018-09-22T11:23:15.946Z,73.37
2018-09-22T11:24:16.008Z,72.99
2018-09-22T11:25:16.072Z,72.06
2018-09-22T11:26:16.134Z,71.10
2018-09-22T11:27:16.198Z,71.39
2018-09-22T11:28:16.262Z,71.55
2018-09-22T11:29:16.325Z,72.12
2018-09-22T11:30:16.392Z,72.31
2018-09-22T11:31:16.455Z,72.41
2018-09-22T11:32:16.518Z,72.89
2018-09-22T11:33:16.583Z,72.69
2018-09-22T11:34:16.644Z,73.72
2018-09-22T11:35:16.709Z,74.77
2018-09-22T11:36:16.771Z,75.12
2018-09-22T11:37:16.833Z,75.06
2018-09-22T11:38:16.953Z,74.68
2018-09-22T11:39:16.964Z,73.72
2018-09-22T11:40:17.026Z,73.52
2018-09-22T11:41:17.089Z,73.33
2018-09-22T11:42:17.150Z,72.66
2018-09-22T11:43:17.215Z,72.95
2018-09-22T11:44:17.279Z,72.75
2018-09-22T11:45:17.341Z,72.31
2018-09-22T11:46:17.436Z,72.50
2018-09-22T11:47:17.467Z,72.08
2018-09-22T11:48:17.531Z,72.75
2018-09-22T11:49:17.593Z,72.95
2018-09-22T11:50:17.656Z,73.18
2018-09-22T11:51:17.719Z,72.41
2018-09-22T11:52:17.782Z,71.93
2018-09-22T11:53:17.846Z,71.25
2018-09-22T11:54:17.908Z,70.78
2018-09-22T11:55:17.973Z,70.39
2018-09-22T11:56:18.092Z,69.62
2018-09-22T11:57:18.099Z,70.23
2018-09-22T11:58:18.162Z,69.85
2018-09-22T11:59:18.224Z,69.66
2018-09-22T12:00:18.289Z,68.89
2018-09-22T12:01:18.351Z,68.51
2018-09-22T12:02:18.415Z,68.02
2018-09-22T12:03:18.478Z,67.93
2018-09-22T12:04:18.541Z,68.02
2018-09-22T12:05:18.604Z,67.74
2018-09-22T12:06:18.761Z,67.74
2018-09-22T12:07:18.731Z,67.07
2018-09-22T12:08:18.795Z,67.16
2018-09-22T12:09:18.863Z,66.97
2018-09-22T12:10:18.922Z,66.77
2018-09-22T12:11:18.986Z,66.68
2018-09-22T12:12:19.053Z,66.68
2018-09-22T12:13:19.113Z,67.07
2018-09-22T12:14:19.177Z,66.20
2018-09-22T12:15:19.242Z,66.49
2018-09-22T12:16:19.306Z,67.16
2018-09-22T12:17:19.368Z,66.20
2018-09-22T12:18:19.434Z,66.10
2018-09-22T12:19:19.498Z,66.20
2018-09-22T12:20:19.561Z,65.53
2018-09-22T12:21:19.628Z,66.30
2018-09-22T12:22:19.690Z,66.93
2018-09-22T12:23:19.753Z,66.49
2018-09-22T12:24:19.816Z,66.39
2018-09-22T12:25:19.880Z,66.39
2018-09-22T12:26:19.944Z,66.30
2018-09-22T12:27:20.008Z,66.49
2018-09-22T12:28:20.075Z,65.62
2018-09-22T12:29:20.135Z,66.00
2018-09-22T12:30:20.198Z,65.91
2018-09-22T12:31:20.266Z,66.30
2018-09-22T12:32:20.327Z,66.64
2018-09-22T12:33:20.389Z,66.74
2018-09-22T12:34:20.704Z,67.32
2018-09-22T12:35:20.517Z,66.93
2018-09-22T12:36:20.587Z,67.90
2018-09-22T12:37:20.644Z,68.37
2018-09-22T12:38:20.709Z,67.13
2018-09-22T12:39:21.022Z,67.22
2018-09-22T12:40:20.834Z,67.70
2018-09-22T12:41:20.897Z,68.08
2018-09-22T12:42:20.961Z,67.74
2018-09-22T12:43:21.024Z,67.25
2018-09-22T12:44:21.090Z,67.16
2018-09-22T12:45:21.154Z,67.93
2018-09-22T12:46:21.213Z,68.02
2018-09-22T12:47:21.277Z,67.54
2018-09-22T12:48:21.340Z,67.19
2018-09-22T12:49:21.404Z,66.81
2018-09-22T12:50:21.469Z,66.91
2018-09-22T12:51:21.531Z,66.91
2018-09-22T12:52:21.596Z,66.91
2018-09-22T12:53:21.658Z,67.19
2018-09-22T12:54:21.726Z,67.48